Time;durP1;ratioP1;P1;durP2;ratioP2;P2;SDS_P1;SDS_P2;PMS_P1;PMS_P2;Temp;Humidity;BMP_temperature;BMP_pressure;BME280_temperature;BME280_humidity;BME280_pressure;Samples;Min_cycle;Max_cycle;Signal;HPM_P1;HPM_P2
2022/01/09 00:01:37;;;;;;;1.83;1.73;;;9.40;82.30;;;;;;5096813;28;20055;-52
2022/01/09 00:04:03;;;;;;;2.75;1.60;;;9.50;82.40;;;;;;5115882;28;20047;-49
2022/01/09 00:06:29;;;;;;;1.52;1.42;;;9.40;82.30;;;;;;5115648;28;20032;-53
2022/01/09 00:08:54;;;;;;;2.53;2.10;;;9.40;82.30;;;;;;5115642;28;20188;-48
2022/01/09 00:11:26;;;;;;;2.17;1.98;;;9.50;82.30;;;;;;5115220;28;20043;-50
2022/01/09 00:13:56;;;;;;;1.60;1.50;;;9.50;82.40;;;;;;5115776;28;20043;-54
2022/01/09 00:16:22;;;;;;;2.17;1.98;;;9.50;82.40;;;;;;5115758;28;20070;-53
2022/01/09 00:18:49;;;;;;;1.70;1.60;;;9.40;82.30;;;;;;5115616;28;20079;-52
2022/01/09 00:21:16;;;;;;;2.10;1.90;;;9.40;82.90;;;;;;5115668;28;20045;-53
2022/01/09 00:23:42;;;;;;;1.90;1.80;;;9.40;82.30;;;;;;5115484;28;20040;-55
2022/01/09 00:26:09;;;;;;;1.60;1.50;;;9.50;82.30;;;;;;5115381;28;20083;-50
2022/01/09 00:28:35;;;;;;;2.10;1.90;;;9.50;82.40;;;;;;5114987;28;20039;-53
2022/01/09 00:31:01;;;;;;;2.45;1.88;;;9.40;82.30;;;;;;5115252;28;20043;-54
2022/01/09 00:33:27;;;;;;;1.83;1.70;;;9.40;82.30;;;;;;5114680;28;20047;-53
2022/01/09 00:35:53;;;;;;;1.90;1.80;;;9.40;82.30;;;;;;5115055;28;20040;-52
2022/01/09 00:38:20;;;;;;;1.75;1.65;;;9.40;82.30;;;;;;5115401;28;20039;-53
2022/01/09 00:40:45;;;;;;;2.03;1.70;;;9.40;82.30;;;;;;5114979;28;20052;-55
2022/01/09 00:43:12;;;;;;;2.38;1.77;;;9.50;82.30;;;;;;5114330;28;20043;-56
2022/01/09 00:45:39;;;;;;;1.50;1.40;;;9.40;82.30;;;;;;5094650;28;20423;-51
2022/01/09 00:48:06;;;;;;;2.10;1.90;;;9.40;82.30;;;;;;5096402;28;20076;-52
2022/01/09 00:50:33;;;;;;;1.80;1.70;;;9.40;82.30;;;;;;5115281;28;20043;-56
2022/01/09 00:52:59;;;;;;;1.80;1.67;;;9.40;82.30;;;;;;5114709;28;20055;-49
2022/01/09 00:55:25;;;;;;;1.83;1.65;;;9.40;82.30;;;;;;5115074;28;20054;-54
2022/01/09 00:57:50;;;;;;;2.00;1.80;;;9.50;82.40;;;;;;5115294;28;20051;-51
2022/01/09 01:00:16;;;;;;;1.85;1.75;;;9.40;82.30;;;;;;5113593;28;20043;-53
2022/01/09 01:02:42;;;;;;;1.52;1.42;;;9.40;82.30;;;;;;5114578;28;20088;-55
2022/01/09 01:05:09;;;;;;;1.95;1.85;;;9.40;82.30;;;;;;5096036;28;20054;-52
2022/01/09 01:07:35;;;;;;;1.70;1.60;;;9.50;82.40;;;;;;5114529;28;20479;-51
2022/01/09 01:10:01;;;;;;;2.22;1.65;;;9.40;83.00;;;;;;5114547;28;20043;-56
2022/01/09 01:12:28;;;;;;;2.10;1.70;;;9.40;82.30;;;;;;5114847;28;20043;-48
2022/01/09 01:14:54;;;;;;;1.58;1.48;;;9.50;82.40;;;;;;5113493;28;20479;-49
2022/01/09 01:17:21;;;;;;;2.55;2.00;;;9.40;82.30;;;;;;5114245;28;20464;-51
2022/01/09 01:19:47;;;;;;;1.42;1.33;;;9.40;82.30;;;;;;5095989;28;20055;-54
2022/01/09 01:22:15;;;;;;;1.92;1.70;;;9.40;82.30;;;;;;5114494;28;20036;-53
2022/01/09 01:24:42;;;;;;;1.58;1.42;;;9.40;82.30;;;;;;5114493;28;20048;-50
2022/01/09 01:27:08;;;;;;;1.95;1.85;;;9.40;82.30;;;;;;5114253;28;20036;-52
2022/01/09 01:29:35;;;;;;;2.10;1.90;;;9.50;82.40;;;;;;5114598;28;20047;-50
2022/01/09 01:32:00;;;;;;;1.65;1.55;;;9.40;82.30;;;;;;5113693;28;20047;-57
2022/01/09 01:34:26;;;;;;;1.60;1.50;;;9.40;82.30;;;;;;5114154;28;20042;-51
2022/01/09 01:36:52;;;;;;;2.15;1.75;;;9.50;82.40;;;;;;5113530;28;20062;-53
2022/01/09 01:39:18;;;;;;;1.90;1.80;;;9.50;82.40;;;;;;5113927;28;20043;-53
2022/01/09 01:41:43;;;;;;;2.00;1.80;;;9.50;82.40;;;;;;5114518;28;20135;-60
2022/01/09 01:44:11;;;;;;;1.75;1.63;;;9.40;82.90;;;;;;5113737;28;20117;-59
2022/01/09 01:46:38;;;;;;;2.15;1.63;;;9.40;82.30;;;;;;5113840;28;20087;-57
2022/01/09 01:49:05;;;;;;;1.70;1.60;;;9.50;82.40;;;;;;5113583;28;20035;-61
2022/01/09 01:51:33;;;;;;;1.90;1.80;;;9.40;82.30;;;;;;5113657;28;20040;-60
2022/01/09 01:53:59;;;;;;;1.50;1.40;;;9.40;82.30;;;;;;5113828;28;20487;-61
2022/01/09 01:56:25;;;;;;;1.55;1.45;;;9.40;82.30;;;;;;5113760;28;20088;-53
2022/01/09 01:58:51;;;;;;;1.60;1.50;;;9.40;82.30;;;;;;5113649;28;20039;-51
2022/01/09 02:01:17;;;;;;;1.80;1.70;;;9.50;82.30;;;;;;5113154;28;20051;-52
2022/01/09 02:03:43;;;;;;;1.70;1.60;;;9.40;82.30;;;;;;5113211;28;20051;-55
2022/01/09 02:06:11;;;;;;;1.83;1.73;;;9.40;82.30;;;;;;5113615;28;20139;-53
2022/01/09 02:08:36;;;;;;;2.05;1.77;;;9.50;82.40;;;;;;5113471;28;20031;-53
2022/01/09 02:11:02;;;;;;;2.17;1.90;;;9.50;82.40;;;;;;5113708;28;20552;-53
2022/01/09 02:13:28;;;;;;;1.98;1.77;;;9.50;82.40;;;;;;5113241;28;20036;-53
2022/01/09 02:15:58;;;;;;;2.00;1.80;;;9.50;82.40;;;;;;5113351;28;20097;-53
2022/01/09 02:18:23;;;;;;;2.25;1.90;;;9.50;82.40;;;;;;5113191;28;20411;-51
2022/01/09 02:20:51;;;;;;;1.40;1.30;;;9.50;82.40;;;;;;5112865;28;20047;-54
2022/01/09 02:23:19;;;;;;;1.70;1.60;;;9.50;82.40;;;;;;5113510;28;20032;-53
2022/01/09 02:25:46;;;;;;;1.80;1.63;;;9.40;82.30;;;;;;5113567;28;20051;-54
2022/01/09 02:28:14;;;;;;;1.70;1.60;;;9.50;82.40;;;;;;5113395;28;20058;-55
2022/01/09 02:30:40;;;;;;;2.10;1.90;;;9.40;82.40;;;;;;5113156;28;20069;-55
2022/01/09 02:33:09;;;;;;;2.00;1.80;;;9.50;82.40;;;;;;5113245;28;20065;-56
2022/01/09 02:35:35;;;;;;;2.08;1.88;;;9.50;82.40;;;;;;5112515;28;20498;-52
2022/01/09 02:38:04;;;;;;;1.92;1.70;;;9.50;82.40;;;;;;5113186;28;20089;-50
2022/01/09 02:40:29;;;;;;;1.73;1.63;;;9.40;82.30;;;;;;5101374;28;20096;-58
2022/01/09 02:42:55;;;;;;;1.98;1.75;;;9.50;82.40;;;;;;5113347;28;20043;-53
2022/01/09 02:45:23;;;;;;;1.70;1.60;;;9.50;82.40;;;;;;5112965;28;20135;-55
2022/01/09 02:47:52;;;;;;;1.70;1.60;;;9.50;82.40;;;;;;5113279;28;20411;-55
2022/01/09 02:55:36;;;;;;;1.55;1.45;;;9.40;82.40;;;;;;5070306;28;20052;-51
2022/01/09 02:58:02;;;;;;;1.48;1.38;;;9.50;82.50;;;;;;5069862;28;20048;-52
2022/01/09 03:00:33;;;;;;;1.75;1.60;;;9.50;82.50;;;;;;5053759;28;20535;-52
2022/01/09 03:02:59;;;;;;;1.70;1.60;;;9.40;82.40;;;;;;5067754;28;20043;-52
2022/01/09 03:05:26;;;;;;;2.10;1.77;;;9.40;82.40;;;;;;5068550;28;20036;-52
2022/01/09 03:07:52;;;;;;;1.75;1.40;;;9.40;82.50;;;;;;5069337;28;20052;-53
2022/01/09 03:10:20;;;;;;;1.52;1.42;;;9.40;82.40;;;;;;5053379;28;20560;-50
2022/01/09 03:12:46;;;;;;;1.35;1.25;;;9.60;82.50;;;;;;5051040;28;20401;-53
2022/01/09 03:15:13;;;;;;;1.50;1.40;;;9.40;82.40;;;;;;5067880;28;20044;-54
2022/01/09 03:17:40;;;;;;;1.88;1.65;;;9.50;82.50;;;;;;5070018;28;20130;-50
2022/01/09 03:20:09;;;;;;;1.92;1.80;;;9.40;82.40;;;;;;5069323;28;20560;-56
2022/01/09 03:22:34;;;;;;;2.08;1.60;;;9.40;82.40;;;;;;5055375;28;20044;-52
2022/01/09 03:25:00;;;;;;;1.85;1.65;;;9.40;82.40;;;;;;5052344;28;20045;-54
2022/01/09 03:27:26;;;;;;;1.65;1.35;;;9.50;82.50;;;;;;5054053;28;20107;-52
2022/01/09 03:29:51;;;;;;;1.65;1.48;;;9.40;82.40;;;;;;5053856;28;20047;-53
2022/01/09 03:32:17;;;;;;;1.90;1.50;;;9.50;82.50;;;;;;5087996;28;20044;-56
2022/01/09 03:34:43;;;;;;;1.27;1.17;;;9.50;82.50;;;;;;5116321;28;20472;-57
2022/01/09 03:37:09;;;;;;;1.85;1.55;;;9.50;82.50;;;;;;5116620;28;20051;-58
2022/01/09 03:39:35;;;;;;;1.48;1.38;;;9.40;82.50;;;;;;5115809;28;20094;-55
2022/01/09 03:42:00;;;;;;;2.00;1.20;;;9.50;82.50;;;;;;5116168;28;20042;-55
2022/01/09 03:44:28;;;;;;;1.40;1.30;;;9.50;82.50;;;;;;5116019;28;20048;-54
2022/01/09 03:46:55;;;;;;;1.63;1.48;;;9.40;82.40;;;;;;5116189;28;20047;-55
2022/01/09 03:49:21;;;;;;;1.55;1.30;;;9.50;82.50;;;;;;5116114;28;20040;-55
2022/01/09 03:51:50;;;;;;;2.30;1.55;;;9.40;82.40;;;;;;5116264;28;20046;-56
2022/01/09 03:54:23;;;;;;;2.20;1.50;;;9.50;82.50;;;;;;5115484;28;20410;-56
2022/01/09 03:56:50;;;;;;;1.58;1.48;;;9.40;82.40;;;;;;5115820;28;20050;-54
2022/01/09 03:59:17;;;;;;;2.75;1.45;;;9.40;82.40;;;;;;5115954;28;20067;-55
2022/01/09 04:01:44;;;;;;;3.33;1.70;;;9.50;82.50;;;;;;5116252;28;20051;-57
2022/01/09 04:04:10;;;;;;;2.47;1.67;;;9.40;82.50;;;;;;5115302;28;20047;-54
2022/01/09 04:06:39;;;;;;;1.55;1.45;;;9.40;82.40;;;;;;5116311;28;20051;-57
2022/01/09 04:09:08;;;;;;;3.33;1.35;;;9.50;82.50;;;;;;5115693;28;20134;-57
2022/01/09 04:11:39;;;;;;;2.20;1.55;;;9.40;82.50;;;;;;5115264;28;20495;-56
2022/01/09 04:14:06;;;;;;;2.30;1.38;;;9.40;82.40;;;;;;5115286;28;20506;-56
2022/01/09 04:16:32;;;;;;;2.13;1.42;;;9.50;82.50;;;;;;5115424;28;20046;-55
2022/01/09 04:18:57;;;;;;;2.25;1.52;;;9.50;82.50;;;;;;5115788;28;20044;-53
2022/01/09 04:21:23;;;;;;;2.78;1.50;;;9.40;82.40;;;;;;5115740;28;20040;-53
2022/01/09 04:23:49;;;;;;;3.05;1.60;;;9.40;82.40;;;;;;5115296;28;20093;-56
2022/01/09 04:26:16;;;;;;;2.65;1.50;;;9.50;82.50;;;;;;5114920;28;20122;-56
2022/01/09 04:28:42;;;;;;;3.22;1.27;;;9.50;82.50;;;;;;5114975;28;20047;-54
2022/01/09 04:31:08;;;;;;;2.38;1.40;;;9.40;82.50;;;;;;5115497;28;20447;-51
2022/01/09 04:33:33;;;;;;;2.05;1.27;;;9.40;82.40;;;;;;5115559;28;20105;-53
2022/01/09 04:35:59;;;;;;;2.25;1.52;;;9.50;82.50;;;;;;5114690;28;20035;-56
2022/01/09 04:38:25;;;;;;;1.80;1.40;;;9.40;82.40;;;;;;5115570;28;20441;-56
2022/01/09 04:40:51;;;;;;;1.98;1.38;;;9.40;82.50;;;;;;5115470;28;20556;-50
2022/01/09 04:43:17;;;;;;;1.40;1.30;;;9.40;82.40;;;;;;5114518;28;20578;-56
2022/01/09 04:45:43;;;;;;;1.48;1.23;;;9.50;82.50;;;;;;5096761;28;20070;-54
2022/01/09 04:48:11;;;;;;;2.00;1.55;;;9.50;82.50;;;;;;5115032;28;20092;-54
2022/01/09 04:50:39;;;;;;;3.13;1.40;;;9.40;82.40;;;;;;5095004;28;20048;-49
2022/01/09 04:53:08;;;;;;;1.75;1.45;;;9.50;82.50;;;;;;5095070;28;20048;-54
2022/01/09 04:55:39;;;;;;;2.90;1.38;;;9.50;82.50;;;;;;5114821;28;20043;-48
2022/01/09 04:58:06;;;;;;;1.58;1.40;;;9.50;82.50;;;;;;5114264;28;20078;-50
2022/01/09 05:00:32;;;;;;;1.10;1.02;;;9.40;82.40;;;;;;5114655;28;20047;-54
2022/01/09 05:02:57;;;;;;;1.67;1.40;;;9.40;83.00;;;;;;5114830;28;20040;-53
2022/01/09 05:05:24;;;;;;;2.85;1.38;;;9.50;82.50;;;;;;5114698;28;20048;-54
2022/01/09 05:07:49;;;;;;;2.17;1.40;;;9.50;82.50;;;;;;5114573;28;20036;-53
2022/01/09 05:10:15;;;;;;;2.88;1.33;;;9.50;82.50;;;;;;5114950;28;20035;-49
2022/01/09 05:12:41;;;;;;;2.80;1.40;;;9.50;82.50;;;;;;5114456;28;20037;-52
2022/01/09 05:15:08;;;;;;;2.60;1.35;;;9.50;82.50;;;;;;5113851;28;20036;-49
2022/01/09 05:17:34;;;;;;;5.28;1.33;;;9.40;82.50;;;;;;5114345;28;20075;-52
2022/01/09 05:20:01;;;;;;;2.42;1.40;;;9.50;82.50;;;;;;5111629;28;20090;-56
2022/01/09 05:22:27;;;;;;;1.55;1.10;;;9.50;82.50;;;;;;5114622;28;20036;-55
2022/01/09 05:24:54;;;;;;;1.63;1.30;;;9.50;82.50;;;;;;5114535;28;20131;-53
2022/01/09 05:27:22;;;;;;;2.25;1.35;;;9.50;83.10;;;;;;5114646;28;20043;-55
2022/01/09 05:29:48;;;;;;;3.22;1.30;;;9.50;82.50;;;;;;5114089;28;20051;-57
2022/01/09 05:32:14;;;;;;;2.00;1.20;;;9.40;82.40;;;;;;5113865;28;20035;-56
2022/01/09 05:34:40;;;;;;;2.67;1.15;;;9.50;82.50;;;;;;5113846;28;20039;-53
2022/01/09 05:37:06;;;;;;;2.88;1.42;;;9.40;82.40;;;;;;5114429;28;20075;-54
2022/01/09 05:39:32;;;;;;;2.03;1.08;;;9.50;82.50;;;;;;5113702;28;20043;-56
2022/01/09 05:42:00;;;;;;;2.08;1.33;;;9.50;82.50;;;;;;5114326;28;20428;-59
2022/01/09 05:44:27;;;;;;;3.20;1.40;;;9.50;82.50;;;;;;5113890;28;20086;-57
2022/01/09 05:46:52;;;;;;;2.95;1.33;;;9.40;82.40;;;;;;5112528;28;20087;-55
2022/01/09 05:49:18;;;;;;;1.92;1.25;;;9.50;82.50;;;;;;5113613;28;20414;-56
2022/01/09 05:51:44;;;;;;;2.50;1.42;;;9.50;82.50;;;;;;5113759;28;20039;-57
2022/01/09 05:54:10;;;;;;;2.95;1.50;;;9.50;82.50;;;;;;5113988;28;20042;-56
2022/01/09 05:56:36;;;;;;;1.83;1.10;;;9.50;82.50;;;;;;5114272;28;20433;-57
2022/01/09 05:59:02;;;;;;;3.10;1.40;;;9.40;82.40;;;;;;5113546;28;20035;-58
2022/01/09 06:01:28;;;;;;;2.28;1.33;;;9.50;82.50;;;;;;5113351;28;20039;-56
2022/01/09 06:03:53;;;;;;;2.45;1.40;;;9.50;82.50;;;;;;5112836;28;20040;-58
2022/01/09 06:06:19;;;;;;;2.90;1.42;;;9.50;82.50;;;;;;5114031;28;20085;-55
2022/01/09 06:08:45;;;;;;;2.05;1.48;;;9.50;82.50;;;;;;5113660;28;20048;-54
2022/01/09 06:11:10;;;;;;;1.65;1.30;;;9.40;82.40;;;;;;5113251;28;20035;-58
2022/01/09 06:13:36;;;;;;;2.03;1.20;;;9.50;82.50;;;;;;5113187;28;20035;-57
2022/01/09 06:16:03;;;;;;;1.42;1.08;;;9.40;82.40;;;;;;5113412;28;20047;-60
2022/01/09 06:18:30;;;;;;;2.13;1.27;;;9.50;82.50;;;;;;5094591;28;20046;-59
2022/01/09 06:20:56;;;;;;;2.33;1.40;;;9.50;82.50;;;;;;5113113;28;20391;-59
2022/01/09 06:23:21;;;;;;;2.25;1.33;;;9.50;82.50;;;;;;5113215;28;20399;-59
2022/01/09 06:25:51;;;;;;;1.63;1.20;;;9.50;82.50;;;;;;5113555;28;20035;-58
2022/01/09 06:28:17;;;;;;;3.20;1.33;;;9.50;82.50;;;;;;5113020;28;20040;-61
2022/01/09 06:30:43;;;;;;;1.88;1.13;;;9.40;82.40;;;;;;5113154;28;20521;-54
2022/01/09 06:33:10;;;;;;;2.55;1.13;;;9.50;82.50;;;;;;5113356;28;20387;-55
2022/01/09 06:35:37;;;;;;;3.22;1.08;;;9.40;82.40;;;;;;5112752;28;20047;-54
2022/01/09 06:38:04;;;;;;;2.70;1.10;;;9.50;82.50;;;;;;5113560;28;20039;-58
2022/01/09 06:40:30;;;;;;;1.58;1.10;;;9.40;82.40;;;;;;5112997;28;20047;-56
2022/01/09 06:42:56;;;;;;;3.42;1.20;;;9.40;82.40;;;;;;5112874;28;20035;-57
2022/01/09 06:45:24;;;;;;;2.67;1.20;;;9.50;82.40;;;;;;5094628;28;20135;-54
2022/01/09 06:47:51;;;;;;;1.42;1.15;;;9.50;82.50;;;;;;5113161;28;20039;-53
2022/01/09 06:50:16;;;;;;;1.08;0.93;;;9.50;82.50;;;;;;5112360;28;20131;-53
2022/01/09 06:52:42;;;;;;;2.67;1.20;;;9.50;82.50;;;;;;5113036;28;20063;-60
2022/01/09 06:55:08;;;;;;;2.58;1.02;;;9.50;82.50;;;;;;5112989;28;20039;-55
2022/01/09 06:57:34;;;;;;;2.72;1.00;;;9.50;82.50;;;;;;5113197;28;20535;-60
2022/01/09 07:00:00;;;;;;;2.78;1.17;;;9.50;82.50;;;;;;5117113;28;20124;-54
2022/01/09 07:02:26;;;;;;;1.42;1.10;;;9.50;82.50;;;;;;5117495;28;20067;-58
2022/01/09 07:04:52;;;;;;;2.33;1.20;;;9.50;82.40;;;;;;5116630;28;20051;-55
2022/01/09 07:07:17;;;;;;;2.97;1.38;;;9.50;82.50;;;;;;5116732;28;20039;-59
2022/01/09 07:09:43;;;;;;;3.55;1.27;;;9.50;82.50;;;;;;5116838;28;20044;-57
2022/01/09 07:12:09;;;;;;;1.77;1.38;;;9.50;82.50;;;;;;5117100;28;20043;-59
2022/01/09 07:14:36;;;;;;;2.60;1.40;;;9.50;82.50;;;;;;5116757;28;20059;-59
2022/01/09 07:17:02;;;;;;;1.90;1.10;;;9.50;82.50;;;;;;5116929;28;20078;-57
2022/01/09 07:19:28;;;;;;;2.00;1.10;;;9.50;82.50;;;;;;5116950;28;20186;-61
2022/01/09 07:21:54;;;;;;;2.63;0.93;;;9.50;82.50;;;;;;5116381;28;20040;-56
2022/01/09 07:24:19;;;;;;;2.55;1.00;;;9.50;82.50;;;;;;5116580;28;20043;-61
2022/01/09 07:26:45;;;;;;;2.20;1.17;;;9.50;82.50;;;;;;5112031;28;20101;-59
2022/01/09 07:29:11;;;;;;;2.35;1.05;;;9.50;83.20;;;;;;5104621;28;20082;-61
2022/01/09 07:31:37;;;;;;;3.17;1.27;;;9.50;82.50;;;;;;5116729;28;20368;-52
2022/01/09 07:34:02;;;;;;;2.90;1.20;;;9.50;82.50;;;;;;5116393;28;20046;-57
2022/01/09 07:36:28;;;;;;;1.95;1.10;;;9.40;82.40;;;;;;5116079;28;20042;-57
2022/01/09 07:38:54;;;;;;;2.00;1.10;;;9.50;82.50;;;;;;5115677;28;20051;-56
2022/01/09 07:41:20;;;;;;;2.05;1.10;;;9.50;82.50;;;;;;5116426;28;20406;-56
2022/01/09 07:43:47;;;;;;;2.90;1.00;;;9.50;82.50;;;;;;5115684;28;20040;-57
2022/01/09 07:46:13;;;;;;;2.25;1.38;;;9.50;82.50;;;;;;5110490;28;20144;-57
2022/01/09 07:48:39;;;;;;;2.58;1.00;;;9.50;82.50;;;;;;5114612;28;20063;-57
2022/01/09 07:51:05;;;;;;;3.33;1.13;;;9.50;82.50;;;;;;5115521;28;20055;-55
2022/01/09 07:53:31;;;;;;;1.75;1.05;;;9.50;82.50;;;;;;5114614;28;20499;-58
2022/01/09 07:55:57;;;;;;;4.20;1.20;;;9.50;82.50;;;;;;5115296;28;20038;-59
2022/01/09 07:58:23;;;;;;;2.20;0.85;;;9.50;82.50;;;;;;5096674;28;20064;-56
2022/01/09 08:00:49;;;;;;;2.00;1.10;;;9.50;82.50;;;;;;5097787;28;20053;-59
2022/01/09 08:03:15;;;;;;;2.65;0.95;;;9.50;82.50;;;;;;5116211;28;20043;-59
2022/01/09 08:05:40;;;;;;;1.40;1.10;;;9.50;82.50;;;;;;5115540;28;20036;-53
2022/01/09 08:08:07;;;;;;;1.17;0.82;;;9.50;82.40;;;;;;5115480;28;20031;-54
2022/01/09 08:10:33;;;;;;;2.00;1.20;;;9.40;82.40;;;;;;5096317;28;20040;-58
2022/01/09 08:13:02;;;;;;;3.28;1.48;;;9.50;82.40;;;;;;5115922;28;20039;-58
2022/01/09 08:15:28;;;;;;;3.40;1.00;;;9.60;82.50;;;;;;5115598;28;20143;-59
2022/01/09 08:17:54;;;;;;;2.08;1.38;;;9.50;82.40;;;;;;5115675;28;20050;-59
2022/01/09 08:20:20;;;;;;;2.00;1.15;;;9.40;82.40;;;;;;5115479;28;20035;-57
2022/01/09 08:22:47;;;;;;;1.95;1.02;;;9.50;82.40;;;;;;5115602;28;20040;-58
2022/01/09 08:25:14;;;;;;;1.65;0.70;;;9.50;82.40;;;;;;5115474;28;20438;-58
2022/01/09 08:27:40;;;;;;;1.80;1.30;;;9.50;82.40;;;;;;5114707;28;20046;-56
2022/01/09 08:30:07;;;;;;;1.52;0.90;;;9.50;82.40;;;;;;5115342;28;20048;-53
2022/01/09 08:32:34;;;;;;;2.00;1.05;;;9.50;82.40;;;;;;5115629;28;20479;-57
2022/01/09 08:35:01;;;;;;;1.80;0.80;;;9.50;82.40;;;;;;5115105;28;20124;-58
2022/01/09 08:37:27;;;;;;;1.77;1.17;;;9.40;82.30;;;;;;5115378;28;20092;-50
2022/01/09 08:39:53;;;;;;;2.00;1.05;;;9.50;82.40;;;;;;5114980;28;20044;-54
2022/01/09 08:42:18;;;;;;;1.73;1.00;;;9.50;82.40;;;;;;5115108;28;20500;-57
2022/01/09 08:44:44;;;;;;;1.02;0.63;;;9.50;82.40;;;;;;5114918;28;20050;-54
2022/01/09 08:47:10;;;;;;;2.38;0.80;;;9.50;82.40;;;;;;5114895;28;20104;-55
2022/01/09 08:49:37;;;;;;;1.63;1.00;;;9.50;82.40;;;;;;5114781;28;20403;-56
2022/01/09 08:52:03;;;;;;;1.50;0.85;;;9.40;82.30;;;;;;5115128;28;20096;-52
2022/01/09 08:54:29;;;;;;;1.63;0.80;;;9.50;82.40;;;;;;5115109;28;20039;-58
2022/01/09 08:56:55;;;;;;;1.42;0.82;;;9.50;82.40;;;;;;5114600;28;20479;-58
2022/01/09 08:59:22;;;;;;;1.17;1.00;;;9.50;82.40;;;;;;5095731;28;20042;-51
2022/01/09 09:01:48;;;;;;;1.33;0.85;;;9.50;82.40;;;;;;5114751;28;20047;-53
2022/01/09 09:04:14;;;;;;;1.80;0.80;;;9.50;82.40;;;;;;5114373;28;20051;-57
2022/01/09 09:06:41;;;;;;;2.00;1.02;;;9.50;82.40;;;;;;5114963;28;20067;-47
2022/01/09 09:09:08;;;;;;;1.63;0.82;;;9.50;82.40;;;;;;5114555;28;20111;-51
2022/01/09 09:11:34;;;;;;;1.70;1.10;;;9.50;82.40;;;;;;5114573;28;20047;-48
2022/01/09 09:14:02;;;;;;;3.80;1.08;;;9.40;82.30;;;;;;5114177;28;20433;-60
2022/01/09 09:16:28;;;;;;;1.10;0.98;;;9.50;82.40;;;;;;5114453;28;20040;-55
2022/01/09 09:18:54;;;;;;;1.13;0.98;;;9.50;82.40;;;;;;5114529;28;20475;-57
2022/01/09 09:21:19;;;;;;;1.38;0.95;;;9.40;82.30;;;;;;5114051;28;20051;-59
2022/01/09 09:23:45;;;;;;;1.20;0.68;;;9.50;82.40;;;;;;5113888;28;20047;-60
2022/01/09 09:26:11;;;;;;;3.20;1.13;;;9.50;82.40;;;;;;5123173;27;20043;-53
2022/01/09 09:28:39;;;;;;;1.90;0.80;;;9.50;82.40;;;;;;5125793;27;20042;-58
2022/01/09 09:31:05;;;;;;;1.73;0.93;;;9.50;82.40;;;;;;5108573;27;20087;-57
2022/01/09 09:33:32;;;;;;;2.50;1.00;;;9.50;82.40;;;;;;5095357;28;20454;-54
2022/01/09 09:36:00;;;;;;;1.05;0.88;;;9.50;82.40;;;;;;5113185;28;20499;-57
2022/01/09 09:38:26;;;;;;;3.17;1.00;;;9.50;82.40;;;;;;5130682;27;20047;-52
2022/01/09 09:40:54;;;;;;;1.95;0.98;;;9.40;82.30;;;;;;5134118;27;20051;-52
2022/01/09 09:43:23;;;;;;;2.33;1.15;;;9.50;82.40;;;;;;5133608;27;20050;-52
2022/01/09 09:45:51;;;;;;;2.22;0.82;;;9.50;82.40;;;;;;5133325;27;20052;-56
2022/01/09 09:48:17;;;;;;;1.38;1.00;;;9.50;82.40;;;;;;5134286;27;20047;-55
2022/01/09 09:50:43;;;;;;;3.20;1.20;;;9.50;82.30;;;;;;5115345;27;20476;-58
2022/01/09 09:53:09;;;;;;;1.65;1.00;;;9.50;82.40;;;;;;5113915;28;20043;-59
2022/01/09 09:55:35;;;;;;;3.60;0.95;;;9.50;82.40;;;;;;5114016;28;20047;-54
2022/01/09 09:58:01;;;;;;;1.10;0.95;;;9.50;82.40;;;;;;5113133;28;20046;-52
2022/01/09 10:00:27;;;;;;;2.10;0.90;;;9.50;82.30;;;;;;5094754;28;20058;-55
2022/01/09 10:02:58;;;;;;;2.47;0.90;;;9.60;82.40;;;;;;5113179;28;20528;-51
2022/01/09 10:05:26;;;;;;;4.38;1.35;;;9.50;82.40;;;;;;5094672;28;20092;-57
2022/01/09 10:07:53;;;;;;;1.52;1.05;;;9.50;82.40;;;;;;5113329;28;20036;-50
2022/01/09 10:10:29;;;;;;;1.33;0.70;;;9.50;82.40;;;;;;5113211;28;20092;-51
2022/01/09 10:13:12;;;;;;;0.63;0.60;;;9.50;82.40;;;;;;5111071;28;20042;-58
2022/01/09 10:16:08;;;;;;;1.00;0.70;;;9.50;82.40;;;;;;5111329;28;20040;-58
2022/01/09 10:19:00;;;;;;;2.40;1.00;;;9.50;82.40;;;;;;5110195;28;20067;-55
2022/01/09 10:21:26;;;;;;;1.65;0.90;;;9.50;82.40;;;;;;5108852;28;20048;-55
2022/01/09 10:24:00;;;;;;;1.10;0.95;;;9.40;82.30;;;;;;5113278;28;20051;-51
2022/01/09 10:26:27;;;;;;;1.00;0.60;;;9.50;82.40;;;;;;5112660;28;20394;-53
2022/01/09 10:28:53;;;;;;;1.30;0.80;;;9.40;82.40;;;;;;5112976;28;20080;-57
2022/01/09 10:31:19;;;;;;;1.48;0.60;;;9.50;82.40;;;;;;5111376;28;20544;-60
2022/01/09 10:34:03;;;;;;;1.55;0.80;;;9.50;82.40;;;;;;5109569;28;20056;-54
2022/01/09 10:36:39;;;;;;;1.52;1.13;;;9.50;82.40;;;;;;5109659;28;20027;-57
2022/01/09 10:39:17;;;;;;;2.13;1.10;;;9.40;82.30;;;;;;5108854;28;20043;-61
2022/01/09 10:41:46;;;;;;;1.33;0.95;;;9.50;82.40;;;;;;5110757;28;20065;-60
2022/01/09 10:44:17;;;;;;;0.70;0.60;;;9.50;82.40;;;;;;5110759;28;20082;-59
2022/01/09 10:46:53;;;;;;;1.60;0.70;;;9.40;82.30;;;;;;5107264;28;20107;-57
2022/01/09 10:49:19;;;;;;;1.83;0.80;;;9.50;82.40;;;;;;5110660;28;20069;-58
2022/01/09 10:51:44;;;;;;;2.35;0.90;;;9.50;82.40;;;;;;5110010;28;20055;-55
2022/01/09 10:54:10;;;;;;;2.90;1.02;;;9.50;82.40;;;;;;5110237;28;20039;-56
2022/01/09 10:56:36;;;;;;;1.55;0.90;;;9.50;82.40;;;;;;5108933;28;20039;-55
2022/01/09 10:59:01;;;;;;;0.95;0.75;;;9.50;82.40;;;;;;5110821;28;20095;-55
2022/01/09 11:01:29;;;;;;;2.15;0.85;;;9.50;82.40;;;;;;5110451;28;20032;-54
2022/01/09 11:04:06;;;;;;;1.30;0.80;;;9.50;83.00;;;;;;5110810;28;20158;-49
2022/01/09 11:06:35;;;;;;;2.25;0.90;;;9.50;82.40;;;;;;5108278;28;20078;-57
2022/01/09 11:09:04;;;;;;;0.70;0.70;;;9.50;82.40;;;;;;5110000;28;20048;-53
2022/01/09 11:11:39;;;;;;;1.65;0.90;;;9.50;82.50;;;;;;5110612;28;20035;-54
2022/01/09 11:14:09;;;;;;;1.92;0.70;;;9.50;82.40;;;;;;5110311;28;20116;-47
2022/01/09 11:16:37;;;;;;;2.25;0.90;;;9.40;82.30;;;;;;5107482;28;20364;-54
2022/01/09 11:19:14;;;;;;;0.95;0.57;;;9.50;82.40;;;;;;5110829;28;20047;-56
2022/01/09 11:21:48;;;;;;;1.58;0.70;;;9.50;82.40;;;;;;5110668;28;20114;-58
2022/01/09 11:24:56;;;;;;;1.13;0.88;;;9.50;82.40;;;;;;5110257;28;20764;-51
2022/01/09 11:27:48;;;;;;;1.52;0.80;;;9.50;82.40;;;;;;5108832;28;20035;-52
2022/01/09 11:30:38;;;;;;;0.77;0.70;;;9.50;82.40;;;;;;5111358;28;20047;-55
2022/01/09 11:33:39;;;;;;;1.52;0.95;;;9.50;82.40;;;;;;5104926;28;20035;-55
2022/01/09 11:36:24;;;;;;;2.40;1.05;;;9.50;82.40;;;;;;5069897;28;20060;-53
2022/01/09 11:39:02;;;;;;;1.00;0.70;;;9.50;82.40;;;;;;5067541;28;20424;-54
2022/01/09 11:41:31;;;;;;;0.90;0.70;;;9.50;82.50;;;;;;5068878;28;20057;-56
2022/01/09 11:44:02;;;;;;;1.40;0.70;;;9.50;82.50;;;;;;5067937;28;20040;-50
2022/01/09 11:46:31;;;;;;;0.70;0.60;;;9.50;82.40;;;;;;5073088;28;20053;-55
2022/01/09 11:48:57;;;;;;;1.75;0.80;;;9.50;82.40;;;;;;5071841;28;20037;-55
2022/01/09 11:51:34;;;;;;;2.47;0.85;;;9.50;82.40;;;;;;5071979;28;20106;-56
2022/01/09 11:54:10;;;;;;;1.15;0.43;;;9.50;82.50;;;;;;5071335;28;20049;-51
2022/01/09 11:56:43;;;;;;;1.02;0.70;;;9.50;82.50;;;;;;5055584;28;20041;-57
2022/01/09 11:59:40;;;;;;;1.13;0.70;;;9.50;82.40;;;;;;5069852;28;20048;-52
2022/01/09 12:02:11;;;;;;;1.40;0.80;;;9.50;82.40;;;;;;5071572;28;20177;-52
2022/01/09 12:04:37;;;;;;;1.98;0.73;;;9.50;82.50;;;;;;5070983;28;20048;-53
2022/01/09 12:07:18;;;;;;;1.63;0.70;;;9.50;82.50;;;;;;5070820;28;20450;-52
2022/01/09 12:09:50;;;;;;;1.25;0.70;;;9.50;82.40;;;;;;5052799;28;20100;-51
2022/01/09 12:12:33;;;;;;;1.17;0.60;;;9.50;82.50;;;;;;5075874;28;20100;-53
2022/01/09 12:17:43;;;;;;;2.00;0.65;;;9.50;82.40;;;;;;5114585;28;20054;-56
2022/01/09 12:20:14;;;;;;;2.90;1.10;;;9.50;82.40;;;;;;5114397;28;20126;-54
2022/01/09 12:22:45;;;;;;;1.13;0.70;;;9.50;82.50;;;;;;5093746;28;20047;-54
2022/01/09 12:25:23;;;;;;;1.27;0.80;;;9.50;82.40;;;;;;5113444;28;20158;-54
2022/01/09 12:27:57;;;;;;;0.80;0.68;;;9.50;82.50;;;;;;5113912;28;20043;-56
2022/01/09 12:30:44;;;;;;;1.67;0.80;;;9.50;82.50;;;;;;5111706;28;20040;-54
2022/01/09 12:33:21;;;;;;;2.25;0.93;;;9.50;82.40;;;;;;5113890;28;20399;-60
2022/01/09 12:36:11;;;;;;;2.15;0.70;;;9.50;82.50;;;;;;5114069;28;20459;-59
2022/01/09 12:38:42;;;;;;;0.90;0.75;;;9.50;82.40;;;;;;5113363;28;20031;-57
2022/01/09 12:41:15;;;;;;;1.70;0.70;;;9.50;82.50;;;;;;5112798;28;20094;-54
2022/01/09 12:43:42;;;;;;;1.13;0.68;;;9.50;82.50;;;;;;5113600;28;20036;-54
2022/01/09 12:46:13;;;;;;;0.85;0.70;;;9.50;82.50;;;;;;5112522;28;20131;-55
2022/01/09 12:48:43;;;;;;;0.85;0.63;;;9.50;82.50;;;;;;5112815;28;20092;-55
2022/01/09 12:51:17;;;;;;;1.15;0.40;;;9.50;82.50;;;;;;5095011;28;20051;-55
2022/01/09 12:53:45;;;;;;;1.20;0.70;;;9.50;82.50;;;;;;5112288;28;20039;-57
2022/01/09 12:56:32;;;;;;;1.13;0.50;;;9.50;82.50;;;;;;5112987;28;20039;-61
2022/01/09 12:59:08;;;;;;;1.10;0.70;;;9.50;82.50;;;;;;5109131;28;20035;-56
2022/01/09 13:01:45;;;;;;;1.13;0.80;;;9.50;82.50;;;;;;5112180;28;20046;-57
2022/01/09 13:04:17;;;;;;;1.75;0.80;;;9.50;82.50;;;;;;5111338;28;20043;-59
2022/01/09 13:06:44;;;;;;;1.35;0.68;;;9.50;82.50;;;;;;5113149;28;20522;-54
2022/01/09 13:09:19;;;;;;;0.90;0.73;;;9.50;82.50;;;;;;5113272;28;20126;-57
2022/01/09 13:11:51;;;;;;;1.25;0.73;;;9.50;82.50;;;;;;5093550;28;20055;-53